createdAt,value
2023-04-10T00:00:27.980Z,11.85
2023-04-10T00:03:57.703Z,12.40
2023-04-10T00:07:10.909Z,14.13
2023-04-10T00:10:20.429Z,19.60
2023-04-10T00:13:27.128Z,15.15
2023-04-10T00:16:38.804Z,12.85
2023-04-10T00:19:47.911Z,12.63
2023-04-10T00:22:55.866Z,16.08
2023-04-10T00:26:06.927Z,14.90
2023-04-10T00:29:16.449Z,17.77
2023-04-10T00:32:25.208Z,14.98
2023-04-10T00:35:38.297Z,12.60
2023-04-10T00:38:46.910Z,13.32
2023-04-10T00:42:00.308Z,17.60
2023-04-10T00:45:07.282Z,12.43
2023-04-10T00:48:16.120Z,16.48
2023-04-10T00:51:23.316Z,23.65
2023-04-10T00:54:30.761Z,21.73
2023-04-10T00:57:42.093Z,18.55
2023-04-10T01:01:07.763Z,15.30
2023-04-10T01:04:17.435Z,19.30
2023-04-10T01:07:31.860Z,15.05
2023-04-10T01:10:43.317Z,13.77
2023-04-10T01:13:59.624Z,12.95
2023-04-10T01:17:08.765Z,13.30
2023-04-10T01:20:25.595Z,8.82
2023-04-10T01:23:51.934Z,15.43
2023-04-10T01:27:09.220Z,16.25
2023-04-10T01:30:23.078Z,16.30
2023-04-10T01:33:35.120Z,14.20
2023-04-10T01:36:45.814Z,15.05
2023-04-10T01:39:56.685Z,12.25
2023-04-10T01:43:03.993Z,14.40
2023-04-10T01:46:13.802Z,9.88
2023-04-10T01:49:26.740Z,14.52
2023-04-10T01:52:35.080Z,11.00
2023-04-10T01:55:40.711Z,12.48
2023-04-10T01:58:47.338Z,15.20
2023-04-10T02:01:59.198Z,13.95
2023-04-10T02:05:05.223Z,15.80
2023-04-10T02:08:16.831Z,13.75
2023-04-10T02:11:28.447Z,17.40
2023-04-10T02:14:45.034Z,17.45
2023-04-10T02:18:02.201Z,18.25
2023-04-10T02:21:14.036Z,16.98
2023-04-10T02:24:22.638Z,14.75
2023-04-10T02:27:36.499Z,13.68
2023-04-10T02:30:44.644Z,14.93
2023-04-10T02:33:55.649Z,15.13
2023-04-10T02:37:02.922Z,15.32
2023-04-10T02:40:14.167Z,18.58
2023-04-10T02:43:21.665Z,13.75
2023-04-10T02:46:32.994Z,13.45
2023-04-10T02:49:42.044Z,14.83
2023-04-10T02:52:47.434Z,14.43
2023-04-10T02:55:56.270Z,14.25
2023-04-10T02:59:02.073Z,14.35
2023-04-10T03:02:10.733Z,15.27
2023-04-10T03:05:20.974Z,14.40
2023-04-10T03:08:30.621Z,14.45
2023-04-10T03:11:36.868Z,15.70
2023-04-10T03:14:48.555Z,17.75
2023-04-10T03:17:54.335Z,13.73
2023-04-10T03:21:06.693Z,16.63
2023-04-10T03:24:12.609Z,20.33
2023-04-10T03:27:22.476Z,14.50
2023-04-10T03:30:30.193Z,18.45
2023-04-10T03:33:37.798Z,15.07
2023-04-10T03:36:48.535Z,13.55
2023-04-10T03:39:54.456Z,16.75
2023-04-10T03:43:01.514Z,18.50
2023-04-10T03:46:07.616Z,16.08
2023-04-10T03:49:14.310Z,19.95
2023-04-10T03:52:32.880Z,15.90
2023-04-10T03:55:41.995Z,17.15
2023-04-10T03:58:47.692Z,14.95
2023-04-10T04:01:53.555Z,15.48
2023-04-10T04:05:01.594Z,15.02
2023-04-10T04:08:10.029Z,18.13
2023-04-10T04:11:15.766Z,14.65
2023-04-10T04:14:23.922Z,16.65
2023-04-10T04:17:32.098Z,20.80
2023-04-10T04:20:40.433Z,19.50
2023-04-10T04:23:49.161Z,15.82
2023-04-10T04:26:55.899Z,14.82
2023-04-10T04:30:05.578Z,18.17
2023-04-10T04:33:13.171Z,13.07
2023-04-10T04:36:20.853Z,15.50
2023-04-10T04:39:31.001Z,18.58
2023-04-10T04:42:43.146Z,19.88
2023-04-10T04:45:48.318Z,18.77
2023-04-10T04:48:56.691Z,22.15
2023-04-10T04:52:04.441Z,17.00
2023-04-10T04:55:14.389Z,17.17
2023-04-10T04:58:20.684Z,18.55
2023-04-10T05:01:28.534Z,19.90
2023-04-10T05:04:34.914Z,20.50
2023-04-10T05:07:43.583Z,19.35
2023-04-10T05:10:54.689Z,17.48
2023-04-10T05:14:03.194Z,19.40
2023-04-10T05:17:08.508Z,15.68
2023-04-10T05:20:15.071Z,17.90
2023-04-10T05:23:21.842Z,21.67
2023-04-10T05:26:31.083Z,19.63
2023-04-10T05:29:38.123Z,19.65
2023-04-10T05:32:43.944Z,18.65
2023-04-10T05:35:50.551Z,16.40
2023-04-10T05:38:57.664Z,18.48
2023-04-10T05:42:18.128Z,16.67
2023-04-10T05:45:24.130Z,18.60
2023-04-10T05:48:30.071Z,19.75
2023-04-10T05:51:39.221Z,22.15
2023-04-10T05:54:45.908Z,18.90
2023-04-10T05:58:00.649Z,17.95
2023-04-10T06:01:14.562Z,18.75
2023-04-10T06:04:21.799Z,20.95
2023-04-10T06:07:44.016Z,16.67
2023-04-10T06:10:52.440Z,17.92
2023-04-10T06:14:05.177Z,15.38
2023-04-10T06:17:12.483Z,16.13
2023-04-10T06:20:18.545Z,15.90
2023-04-10T06:23:30.399Z,12.95
2023-04-10T06:26:37.711Z,12.98
2023-04-10T06:29:47.104Z,14.82
2023-04-10T06:32:52.608Z,12.40
2023-04-10T06:36:18.486Z,11.93
2023-04-10T06:40:04.821Z,14.48
2023-04-10T06:43:14.445Z,10.82
2023-04-10T06:46:33.325Z,12.73
2023-04-10T06:49:42.374Z,10.37
2023-04-10T06:53:00.228Z,9.55
2023-04-10T06:56:08.522Z,9.18
2023-04-10T06:59:15.686Z,10.75
2023-04-10T07:02:27.479Z,8.70
2023-04-10T07:05:34.567Z,11.80
2023-04-10T07:08:45.086Z,8.27
2023-04-10T07:11:55.060Z,8.60
2023-04-10T07:15:03.694Z,7.85
2023-04-10T07:18:15.299Z,9.45
2023-04-10T07:21:34.388Z,7.35
2023-04-10T07:24:43.596Z,10.70
2023-04-10T07:27:58.488Z,7.95
2023-04-10T07:31:08.868Z,8.70
2023-04-10T07:34:20.505Z,9.38
2023-04-10T07:37:36.439Z,8.98
2023-04-10T07:40:43.256Z,8.43
2023-04-10T07:43:50.499Z,8.88
2023-04-10T07:46:59.224Z,9.88
2023-04-10T07:50:20.178Z,9.13
2023-04-10T07:53:34.507Z,10.48
2023-04-10T07:56:41.674Z,9.40
2023-04-10T07:59:48.233Z,7.75
2023-04-10T08:02:55.142Z,7.35
2023-04-10T08:06:04.666Z,7.97
2023-04-10T08:09:11.372Z,8.30
2023-04-10T08:12:21.243Z,8.38
2023-04-10T08:15:26.686Z,8.65
2023-04-10T08:18:32.911Z,6.85
2023-04-10T08:21:53.864Z,7.53
2023-04-10T08:25:00.949Z,7.32
2023-04-10T08:28:08.527Z,9.48
2023-04-10T08:31:13.983Z,6.20
2023-04-10T08:34:20.529Z,7.05
2023-04-10T08:37:39.375Z,7.40
2023-04-10T08:40:45.702Z,11.77
2023-04-10T08:43:54.732Z,6.00
2023-04-10T08:47:02.526Z,8.48
2023-04-10T08:50:11.185Z,7.68
2023-04-10T08:53:21.448Z,7.32
2023-04-10T08:56:27.852Z,6.78
2023-04-10T08:59:38.464Z,7.93
2023-04-10T09:02:48.054Z,8.82
2023-04-10T09:05:54.040Z,7.90
2023-04-10T09:09:14.847Z,9.13
2023-04-10T09:12:20.309Z,8.43
2023-04-10T09:15:27.565Z,9.48
2023-04-10T09:18:56.131Z,10.70
2023-04-10T09:22:05.557Z,12.15
2023-04-10T09:25:37.747Z,9.93
2023-04-10T09:28:58.533Z,12.25
2023-04-10T09:32:10.166Z,10.57
2023-04-10T09:35:19.258Z,14.20
2023-04-10T09:38:30.276Z,12.95
2023-04-10T09:41:38.765Z,11.77
2023-04-10T09:44:44.609Z,9.48
2023-04-10T09:48:04.476Z,9.20
2023-04-10T09:51:32.296Z,10.73
2023-04-10T09:54:48.646Z,11.73
2023-04-10T09:58:02.302Z,10.88
2023-04-10T10:01:09.932Z,10.77
2023-04-10T10:04:18.558Z,7.78
2023-04-10T10:07:29.251Z,9.90
2023-04-10T10:10:37.367Z,11.00
2023-04-10T10:13:50.607Z,8.15
2023-04-10T10:16:59.052Z,10.75
2023-04-10T10:20:06.429Z,9.85
2023-04-10T10:23:11.474Z,10.73
2023-04-10T10:26:17.695Z,6.25
2023-04-10T10:29:27.184Z,9.18
2023-04-10T10:32:33.302Z,9.63
2023-04-10T10:35:38.760Z,8.15
2023-04-10T10:38:51.834Z,6.50
2023-04-10T10:42:16.997Z,8.57
2023-04-10T10:45:27.148Z,9.05
2023-04-10T10:48:32.248Z,7.32
2023-04-10T10:51:46.872Z,7.25
2023-04-10T10:54:59.257Z,6.75
2023-04-10T10:58:07.029Z,7.43
2023-04-10T11:01:14.757Z,9.00
2023-04-10T11:04:37.836Z,8.20
2023-04-10T11:07:58.260Z,8.20
2023-04-10T11:11:06.098Z,7.53
2023-04-10T11:14:21.693Z,7.18
2023-04-10T11:17:42.203Z,8.00
2023-04-10T11:21:02.449Z,7.00
2023-04-10T11:24:13.842Z,6.63
2023-04-10T11:27:33.743Z,5.72
2023-04-10T11:30:45.849Z,6.20
2023-04-10T11:33:52.401Z,6.65
2023-04-10T11:36:59.410Z,5.88
2023-04-10T11:40:12.279Z,8.50
2023-04-10T11:43:22.513Z,9.90
2023-04-10T11:46:29.186Z,8.68
2023-04-10T11:49:37.346Z,7.30
2023-04-10T11:52:42.991Z,9.40
2023-04-10T11:55:54.520Z,6.35
2023-04-10T11:59:01.060Z,7.05
2023-04-10T12:02:09.517Z,6.55
2023-04-10T12:05:15.579Z,11.13
2023-04-10T12:08:22.082Z,6.97
2023-04-10T12:11:33.727Z,6.40
2023-04-10T12:14:40.339Z,6.28
2023-04-10T12:17:49.570Z,6.07
2023-04-10T12:20:58.840Z,5.38
2023-04-10T12:24:06.029Z,7.18
2023-04-10T12:27:21.980Z,4.53
2023-04-10T12:30:31.732Z,5.80
2023-04-10T12:33:37.675Z,5.93
2023-04-10T12:36:44.427Z,5.63
2023-04-10T12:39:52.118Z,6.93
2023-04-10T12:43:05.213Z,6.28
2023-04-10T12:46:11.950Z,7.32
2023-04-10T12:49:18.733Z,6.50
2023-04-10T12:52:26.362Z,6.95
2023-04-10T12:55:36.140Z,7.50
2023-04-10T12:58:50.778Z,6.78
2023-04-10T13:02:00.079Z,6.72
2023-04-10T13:05:09.002Z,6.50
2023-04-10T13:08:14.536Z,6.82
2023-04-10T13:11:21.804Z,6.40
2023-04-10T13:14:32.179Z,6.55
2023-04-10T13:17:41.260Z,6.15
2023-04-10T13:20:48.581Z,8.20
2023-04-10T13:23:59.263Z,7.30
2023-04-10T13:27:04.893Z,7.68
2023-04-10T13:30:14.633Z,5.32
2023-04-10T13:33:20.058Z,7.35
2023-04-10T13:36:26.507Z,5.40
2023-04-10T13:39:32.737Z,6.40
2023-04-10T13:42:41.234Z,5.28
2023-04-10T13:45:50.791Z,6.88
2023-04-10T13:49:02.678Z,5.70
2023-04-10T13:52:08.220Z,5.93
2023-04-10T13:55:15.059Z,4.60
2023-04-10T13:58:20.751Z,6.53
2023-04-10T14:01:32.244Z,4.90
2023-04-10T14:04:37.458Z,5.93
2023-04-10T14:07:44.538Z,6.15
2023-04-10T14:10:54.340Z,6.55
2023-04-10T14:14:00.447Z,5.93
2023-04-10T14:17:14.514Z,5.20
2023-04-10T14:20:20.124Z,6.78
2023-04-10T14:23:25.387Z,5.40
2023-04-10T14:26:45.521Z,5.35
2023-04-10T14:29:54.898Z,8.50
2023-04-10T14:33:04.262Z,5.55
2023-04-10T14:36:09.848Z,5.93
2023-04-10T14:39:17.602Z,5.45
2023-04-10T14:42:24.720Z,8.07
2023-04-10T14:45:30.581Z,7.60
2023-04-10T14:48:40.833Z,6.63
2023-04-10T14:51:50.512Z,6.80
2023-04-10T14:54:55.811Z,5.35
2023-04-10T14:58:03.490Z,7.82
2023-04-10T15:01:12.040Z,6.15
2023-04-10T15:04:23.288Z,5.45
2023-04-10T15:07:34.203Z,6.03
2023-04-10T15:10:39.968Z,5.28
2023-04-10T15:13:45.316Z,6.30
2023-04-10T15:16:53.522Z,9.90
2023-04-10T15:20:05.639Z,6.80
2023-04-10T15:26:17.320Z,7.25
2023-04-10T15:29:22.993Z,7.00
2023-04-10T15:32:29.398Z,6.07
2023-04-10T15:35:37.708Z,5.50
2023-04-10T15:38:42.931Z,6.53
2023-04-10T15:41:50.359Z,7.63
2023-04-10T15:44:57.595Z,9.52
2023-04-10T15:48:07.946Z,6.35
2023-04-10T15:51:16.121Z,6.18
2023-04-10T15:54:24.714Z,5.53
2023-04-10T15:57:31.750Z,4.72
2023-04-10T16:00:39.114Z,6.03
2023-04-10T16:03:46.050Z,7.57
2023-04-10T16:06:59.605Z,6.47
2023-04-10T16:10:05.565Z,6.45
2023-04-10T16:13:19.506Z,6.95
2023-04-10T16:16:30.748Z,5.47
2023-04-10T16:19:39.716Z,6.43
2023-04-10T16:22:51.062Z,7.78
2023-04-10T16:25:59.181Z,6.38
2023-04-10T16:29:13.637Z,5.82
2023-04-10T16:32:19.579Z,8.77
2023-04-10T16:35:24.799Z,6.05
2023-04-10T16:38:35.071Z,7.60
2023-04-10T16:41:44.346Z,7.93
2023-04-10T16:44:51.399Z,9.25
2023-04-10T16:51:18.825Z,10.20
2023-04-10T16:54:30.893Z,6.85
2023-04-10T16:57:40.670Z,7.97
2023-04-10T17:00:45.954Z,8.02
2023-04-10T17:03:59.882Z,10.80
2023-04-10T17:07:09.306Z,12.68
2023-04-10T17:10:18.514Z,11.90
2023-04-10T17:13:24.737Z,11.43
2023-04-10T17:16:30.768Z,14.55
2023-04-10T17:19:37.490Z,24.77
2023-04-10T17:22:43.431Z,65.05
2023-04-10T17:26:00.504Z,24.17
2023-04-10T17:29:06.637Z,21.25
2023-04-10T17:32:12.914Z,19.92
2023-04-10T17:35:19.235Z,22.15
2023-04-10T17:38:24.854Z,10.55
2023-04-10T17:41:33.563Z,9.32
2023-04-10T17:44:38.979Z,9.95
2023-04-10T17:47:46.169Z,9.85
2023-04-10T17:50:53.730Z,10.27
2023-04-10T17:54:01.817Z,14.35
2023-04-10T17:57:11.668Z,29.17
2023-04-10T18:00:20.611Z,18.20
2023-04-10T18:03:26.549Z,25.65
2023-04-10T18:06:32.680Z,17.17
2023-04-10T18:09:38.423Z,14.10
2023-04-10T18:12:48.052Z,16.33
2023-04-10T18:15:53.502Z,15.82
2023-04-10T18:18:59.742Z,16.67
2023-04-10T18:22:05.605Z,13.50
2023-04-10T18:25:12.374Z,12.50
2023-04-10T18:28:23.747Z,14.10
2023-04-10T18:34:50.156Z,13.00
2023-04-10T18:38:00.130Z,7.15
2023-04-10T18:41:05.563Z,7.22
2023-04-10T18:44:17.123Z,8.98
2023-04-10T18:47:22.878Z,6.85
2023-04-10T18:50:31.388Z,8.68
2023-04-10T18:53:42.135Z,9.70
2023-04-10T18:56:48.463Z,8.25
2023-04-10T18:59:58.187Z,8.35
2023-04-10T19:03:04.514Z,8.05
2023-04-10T19:06:14.055Z,7.88
2023-04-10T19:09:21.440Z,10.07
2023-04-10T19:12:27.223Z,10.07
2023-04-10T19:15:38.012Z,8.55
2023-04-10T19:18:43.909Z,8.80
2023-04-10T19:21:52.997Z,9.20
2023-04-10T19:24:58.546Z,10.73
2023-04-10T19:28:04.158Z,10.48
2023-04-10T19:31:13.465Z,8.52
2023-04-10T19:34:19.399Z,9.10
2023-04-10T19:37:24.802Z,8.80
2023-04-10T19:40:30.323Z,8.65
2023-04-10T19:43:36.022Z,7.97
2023-04-10T19:46:45.003Z,8.18
2023-04-10T19:49:50.859Z,9.48
2023-04-10T19:52:56.878Z,8.20
2023-04-10T19:56:02.048Z,9.60
2023-04-10T19:59:08.968Z,6.75
2023-04-10T20:02:18.846Z,8.80
2023-04-10T20:05:25.128Z,7.63
2023-04-10T20:08:30.463Z,11.57
2023-04-10T20:11:36.543Z,10.73
2023-04-10T20:14:43.602Z,8.75
2023-04-10T20:17:52.114Z,6.65
2023-04-10T20:20:58.799Z,8.95
2023-04-10T20:24:05.754Z,9.13
2023-04-10T20:27:10.742Z,8.85
2023-04-10T20:30:16.345Z,9.27
2023-04-10T20:33:24.668Z,7.82
2023-04-10T20:36:30.403Z,8.68
2023-04-10T20:39:37.921Z,9.05
2023-04-10T20:42:45.957Z,9.10
2023-04-10T20:45:52.871Z,10.80
2023-04-10T20:49:03.766Z,7.18
2023-04-10T20:52:13.017Z,7.82
2023-04-10T20:55:20.943Z,9.13
2023-04-10T20:58:26.843Z,8.75
2023-04-10T21:01:32.799Z,8.55
2023-04-10T21:04:41.242Z,10.35
2023-04-10T21:07:46.708Z,8.63
2023-04-10T21:10:51.726Z,8.60
2023-04-10T21:13:58.729Z,8.30
2023-04-10T21:17:03.779Z,10.18
2023-04-10T21:20:13.303Z,8.73
2023-04-10T21:23:18.314Z,9.07
2023-04-10T21:26:24.110Z,11.25
2023-04-10T21:29:29.463Z,9.35
2023-04-10T21:32:38.884Z,10.25
2023-04-10T21:35:48.145Z,11.93
2023-04-10T21:38:53.886Z,12.25
2023-04-10T21:42:01.736Z,9.40
2023-04-10T21:45:07.676Z,8.75
2023-04-10T21:48:12.775Z,12.20
2023-04-10T21:51:21.649Z,8.95
2023-04-10T21:54:26.646Z,10.40
2023-04-10T21:57:32.013Z,8.98
2023-04-10T22:00:37.159Z,9.05
2023-04-10T22:03:44.278Z,12.68
2023-04-10T22:06:52.085Z,9.63
2023-04-10T22:09:57.878Z,9.82
2023-04-10T22:13:03.314Z,8.50
2023-04-10T22:16:08.938Z,9.57
2023-04-10T22:19:13.939Z,9.95
2023-04-10T22:22:22.414Z,10.35
2023-04-10T22:25:30.275Z,11.13
2023-04-10T22:28:36.248Z,10.50
2023-04-10T22:31:42.628Z,8.32
2023-04-10T22:34:48.206Z,10.27
2023-04-10T22:37:57.594Z,11.75
2023-04-10T22:41:07.127Z,9.65
2023-04-10T22:44:12.350Z,9.43
2023-04-10T22:47:18.177Z,9.10
2023-04-10T22:50:23.776Z,10.20
2023-04-10T22:53:33.421Z,8.57
2023-04-10T22:56:38.538Z,10.63
2023-04-10T22:59:44.286Z,11.20
2023-04-10T23:02:49.437Z,10.50
2023-04-10T23:05:56.813Z,11.45
2023-04-10T23:09:06.543Z,11.88
2023-04-10T23:12:11.942Z,13.00
2023-04-10T23:15:19.885Z,13.55
2023-04-10T23:18:25.938Z,15.00
2023-04-10T23:21:31.871Z,12.80
2023-04-10T23:24:42.834Z,12.45
2023-04-10T23:27:48.494Z,14.25
2023-04-10T23:30:54.472Z,12.73
2023-04-10T23:33:59.834Z,14.65
2023-04-10T23:37:06.119Z,14.57
2023-04-10T23:40:17.784Z,15.02
2023-04-10T23:43:23.211Z,14.23
2023-04-10T23:46:28.297Z,16.48
2023-04-10T23:49:35.078Z,13.90
2023-04-10T23:52:40.487Z,14.57
2023-04-10T23:55:49.287Z,13.95
2023-04-10T23:58:55.064Z,14.13
